Time;durP1;ratioP1;P1;durP2;ratioP2;P2;SDS_P1;SDS_P2;PMS_P1;PMS_P2;Temp;Humidity;BMP_temperature;BMP_pressure;BME280_temperature;BME280_humidity;BME280_pressure;Samples;Min_cycle;Max_cycle;Signal;HPM_P1;HPM_P2
2023/07/01 00:01:22;;;;;;;2.78;1.40;;;;;;;;;;5056240;28;20033;-75
2023/07/01 00:03:47;;;;;;;1.92;1.30;;;;;;;;;;5038007;28;20388;-75
2023/07/01 00:06:13;;;;;;;3.50;1.40;;;;;;;;;;5037870;28;20033;-75
2023/07/01 00:08:39;;;;;;;2.05;1.27;;;;;;;;;;5074579;28;20063;-75
2023/07/01 00:11:05;;;;;;;1.70;1.20;;;;;;;;;;5075245;28;20025;-75
2023/07/01 00:13:30;;;;;;;2.58;1.52;;;;;;;;;;5074764;28;20383;-75
2023/07/01 00:15:56;;;;;;;2.35;1.25;;;;;;;;;;5056949;28;20040;-75
2023/07/01 00:18:22;;;;;;;4.43;1.50;;;;;;;;;;5040888;28;20471;-75
2023/07/01 00:20:47;;;;;;;3.45;1.42;;;;;;;;;;5040444;28;20025;-75
2023/07/01 00:23:12;;;;;;;1.83;1.30;;;;;;;;;;5040565;28;20024;-75
2023/07/01 00:25:38;;;;;;;2.60;1.40;;;;;;;;;;5056963;28;20056;-75
2023/07/01 00:28:03;;;;;;;2.72;1.60;;;;;;;;;;5075059;28;20146;-75
2023/07/01 00:30:29;;;;;;;1.90;1.13;;;;;;;;;;5057302;28;20099;-75
2023/07/01 00:32:54;;;;;;;1.65;1.30;;;;;;;;;;5075275;28;20029;-75
2023/07/01 00:35:20;;;;;;;3.03;1.30;;;;;;;;;;5056847;28;20033;-75
2023/07/01 00:37:45;;;;;;;1.70;1.40;;;;;;;;;;5074738;28;20032;-75
2023/07/01 00:40:11;;;;;;;2.40;1.67;;;;;;;;;;5056798;28;20040;-75
2023/07/01 00:42:36;;;;;;;2.83;1.30;;;;;;;;;;5074880;28;20107;-75
2023/07/01 00:45:02;;;;;;;3.78;1.50;;;;;;;;;;5056677;28;20036;-75
2023/07/01 00:47:27;;;;;;;2.55;1.10;;;;;;;;;;5040458;28;20047;-76
2023/07/01 00:49:53;;;;;;;1.63;1.40;;;;;;;;;;5039998;28;20039;-75
2023/07/01 00:52:18;;;;;;;2.40;1.30;;;;;;;;;;5074868;28;20044;-75
2023/07/01 00:54:43;;;;;;;2.47;1.50;;;;;;;;;;5056602;28;20036;-75
2023/07/01 00:57:09;;;;;;;2.13;1.52;;;;;;;;;;5039902;28;20105;-75
2023/07/01 00:59:35;;;;;;;2.00;1.27;;;;;;;;;;5074205;28;20087;-75
2023/07/01 01:02:04;;;;;;;2.30;1.35;;;;;;;;;;5074440;28;20021;-75
2023/07/01 01:04:35;;;;;;;2.03;1.30;;;;;;;;;;5039543;28;20043;-75
2023/07/01 01:07:10;;;;;;;4.90;1.73;;;;;;;;;;5050063;28;20040;-75
2023/07/01 01:09:41;;;;;;;2.60;1.48;;;;;;;;;;5036177;28;20117;-75
2023/07/01 01:12:09;;;;;;;5.68;1.50;;;;;;;;;;5054357;28;20027;-75
2023/07/01 01:14:35;;;;;;;3.35;1.50;;;;;;;;;;5019780;28;20364;-74
2023/07/01 01:17:04;;;;;;;2.30;1.40;;;;;;;;;;5019653;28;20029;-75
2023/07/01 01:19:52;;;;;;;2.95;1.60;;;;;;;;;;5019905;28;20029;-75
2023/07/01 01:22:22;;;;;;;2.88;1.48;;;;;;;;;;5036128;28;20056;-75
2023/07/01 01:24:51;;;;;;;2.22;1.52;;;;;;;;;;5053986;28;20044;-77
2023/07/01 01:27:22;;;;;;;2.22;1.35;;;;;;;;;;5036008;28;20423;-75
2023/07/01 01:29:47;;;;;;;1.85;1.50;;;;;;;;;;5019320;28;20055;-75
2023/07/01 01:32:14;;;;;;;2.53;1.50;;;;;;;;;;5035754;28;20025;-75
2023/07/01 01:34:40;;;;;;;2.35;1.58;;;;;;;;;;5053586;28;20108;-75
2023/07/01 01:37:07;;;;;;;1.85;1.42;;;;;;;;;;5019249;28;20122;-75
2023/07/01 01:39:42;;;;;;;2.92;1.60;;;;;;;;;;5036079;28;20028;-76
2023/07/01 01:42:17;;;;;;;2.10;1.38;;;;;;;;;;5036277;28;20029;-75
2023/07/01 01:44:47;;;;;;;2.28;1.38;;;;;;;;;;5035582;28;20032;-75
2023/07/01 01:47:18;;;;;;;3.33;1.30;;;;;;;;;;5053866;28;20128;-75
2023/07/01 01:49:46;;;;;;;2.28;1.55;;;;;;;;;;5053427;28;20540;-75
2023/07/01 01:52:15;;;;;;;3.47;1.50;;;;;;;;;;5019103;28;20017;-75
2023/07/01 01:54:42;;;;;;;3.85;1.45;;;;;;;;;;5018995;28;20109;-75
2023/07/01 01:57:07;;;;;;;2.42;1.30;;;;;;;;;;5035686;28;20033;-75
2023/07/01 01:59:33;;;;;;;1.98;1.17;;;;;;;;;;5035733;28;20506;-75
2023/07/01 02:01:58;;;;;;;1.98;1.40;;;;;;;;;;5035590;28;20079;-75
2023/07/01 02:04:24;;;;;;;1.60;1.23;;;;;;;;;;5053151;28;20108;-75
2023/07/01 02:06:49;;;;;;;1.92;1.48;;;;;;;;;;5039758;28;20514;-75
2023/07/01 02:09:14;;;;;;;1.90;1.50;;;;;;;;;;5055483;28;20032;-75
2023/07/01 02:11:40;;;;;;;2.53;1.30;;;;;;;;;;5055298;28;20426;-75
2023/07/01 02:14:05;;;;;;;2.00;1.50;;;;;;;;;;5055305;28;20029;-75
2023/07/01 02:16:33;;;;;;;2.80;1.63;;;;;;;;;;5073331;28;20486;-75
2023/07/01 02:18:58;;;;;;;2.83;1.60;;;;;;;;;;5055462;28;20041;-75
2023/07/01 02:21:24;;;;;;;2.55;1.80;;;;;;;;;;5055178;28;20036;-75
2023/07/01 02:23:49;;;;;;;2.33;1.50;;;;;;;;;;5038542;28;20178;-74
2023/07/01 02:26:15;;;;;;;1.83;1.40;;;;;;;;;;5038678;28;20032;-75
2023/07/01 02:28:40;;;;;;;1.55;1.40;;;;;;;;;;5038511;28;20039;-75
2023/07/01 02:31:05;;;;;;;2.60;1.50;;;;;;;;;;5073005;28;20024;-75
2023/07/01 02:33:31;;;;;;;2.53;1.42;;;;;;;;;;5072915;28;20433;-75
2023/07/01 02:35:56;;;;;;;5.47;1.40;;;;;;;;;;5073442;28;20059;-75
2023/07/01 02:38:21;;;;;;;2.45;1.40;;;;;;;;;;5057984;28;20055;-75
2023/07/01 02:40:47;;;;;;;1.65;1.20;;;;;;;;;;5077191;28;20032;-76
2023/07/01 02:43:12;;;;;;;1.75;1.30;;;;;;;;;;5058753;28;20119;-75
2023/07/01 02:45:37;;;;;;;2.58;1.30;;;;;;;;;;5059168;28;20032;-75
2023/07/01 02:48:03;;;;;;;1.67;1.30;;;;;;;;;;5059385;28;20033;-75
2023/07/01 02:50:29;;;;;;;2.83;1.48;;;;;;;;;;5077194;28;20448;-75
2023/07/01 02:52:54;;;;;;;5.35;1.40;;;;;;;;;;5076868;28;20024;-75
2023/07/01 02:55:19;;;;;;;1.95;1.30;;;;;;;;;;5076718;28;20111;-75
2023/07/01 02:57:45;;;;;;;3.20;1.70;;;;;;;;;;5076761;28;20441;-76
2023/07/01 03:00:11;;;;;;;4.25;1.75;;;;;;;;;;5076760;28;20029;-75
2023/07/01 03:02:36;;;;;;;2.47;1.40;;;;;;;;;;5058595;28;20418;-75
2023/07/01 03:05:04;;;;;;;1.40;1.30;;;;;;;;;;5059098;28;20024;-75
2023/07/01 03:07:29;;;;;;;2.53;1.65;;;;;;;;;;5058942;28;20127;-75
2023/07/01 03:09:55;;;;;;;1.63;1.20;;;;;;;;;;5042097;28;20067;-76
2023/07/01 03:12:21;;;;;;;2.40;1.40;;;;;;;;;;5058890;28;20029;-75
2023/07/01 03:14:46;;;;;;;2.53;1.38;;;;;;;;;;5076182;28;20028;-75
2023/07/01 03:17:12;;;;;;;2.33;1.55;;;;;;;;;;5041738;28;20033;-75
2023/07/01 03:19:40;;;;;;;2.30;1.40;;;;;;;;;;5076364;28;20029;-76
2023/07/01 03:22:06;;;;;;;1.42;1.33;;;;;;;;;;5058850;28;20475;-76
2023/07/01 03:24:33;;;;;;;3.10;1.40;;;;;;;;;;5058690;28;20036;-76
2023/07/01 03:27:02;;;;;;;1.90;1.20;;;;;;;;;;5076289;28;20104;-75
2023/07/01 03:29:28;;;;;;;1.70;1.40;;;;;;;;;;5058594;28;20141;-74
2023/07/01 03:31:53;;;;;;;2.25;1.30;;;;;;;;;;5042011;28;20376;-74
2023/07/01 03:34:22;;;;;;;2.45;1.65;;;;;;;;;;5058278;28;20032;-75
2023/07/01 03:36:47;;;;;;;2.35;1.38;;;;;;;;;;5059231;28;20475;-77
2023/07/01 03:39:13;;;;;;;1.98;1.33;;;;;;;;;;5058296;28;20058;-74
2023/07/01 03:41:38;;;;;;;2.38;1.50;;;;;;;;;;5075919;28;20153;-75
2023/07/01 03:44:04;;;;;;;2.63;1.30;;;;;;;;;;5076340;28;20108;-75
2023/07/01 03:46:29;;;;;;;1.98;1.38;;;;;;;;;;5075801;28;20028;-75
2023/07/01 03:48:55;;;;;;;1.40;1.30;;;;;;;;;;5075115;28;20033;-74
2023/07/01 03:51:21;;;;;;;1.58;1.40;;;;;;;;;;5075612;28;20063;-75
2023/07/01 03:53:46;;;;;;;1.73;1.38;;;;;;;;;;5076325;28;20032;-75
2023/07/01 03:56:12;;;;;;;1.88;1.30;;;;;;;;;;5075843;28;20029;-75
2023/07/01 03:58:37;;;;;;;2.55;1.65;;;;;;;;;;5075458;28;20024;-75
2023/07/01 04:01:04;;;;;;;2.00;1.35;;;;;;;;;;5057402;28;20082;-75
2023/07/01 04:03:33;;;;;;;2.95;1.35;;;;;;;;;;5040798;28;20447;-75
2023/07/01 04:05:58;;;;;;;2.08;1.40;;;;;;;;;;5057082;28;20072;-77
2023/07/01 04:08:24;;;;;;;2.88;1.35;;;;;;;;;;5074943;28;20480;-75
2023/07/01 04:10:49;;;;;;;1.80;1.30;;;;;;;;;;5040316;28;20142;-75
2023/07/01 04:13:15;;;;;;;1.27;1.10;;;;;;;;;;5057442;28;20055;-75
2023/07/01 04:15:40;;;;;;;3.28;1.30;;;;;;;;;;5040398;28;20093;-75
2023/07/01 04:18:06;;;;;;;2.45;1.30;;;;;;;;;;5057386;28;20044;-75
2023/07/01 04:20:31;;;;;;;2.25;1.33;;;;;;;;;;5056373;28;20547;-76
2023/07/01 04:22:57;;;;;;;3.30;1.27;;;;;;;;;;5074859;28;20107;-75
2023/07/01 04:25:22;;;;;;;1.70;1.27;;;;;;;;;;5074687;28;20112;-75
2023/07/01 04:27:48;;;;;;;1.73;1.10;;;;;;;;;;5074532;28;20474;-75
2023/07/01 04:30:13;;;;;;;5.03;1.90;;;;;;;;;;5040053;28;20025;-75
2023/07/01 04:32:40;;;;;;;1.30;1.20;;;;;;;;;;5056475;28;20071;-75
2023/07/01 04:35:05;;;;;;;1.75;1.10;;;;;;;;;;5056829;28;20020;-75
2023/07/01 04:37:31;;;;;;;2.00;1.25;;;;;;;;;;5074487;28;20056;-75
2023/07/01 04:39:56;;;;;;;4.05;1.50;;;;;;;;;;5040466;28;20103;-75
2023/07/01 04:42:21;;;;;;;2.55;1.30;;;;;;;;;;5056488;28;20032;-75
2023/07/01 04:44:55;;;;;;;2.53;1.45;;;;;;;;;;5056328;28;20032;-75
2023/07/01 04:47:22;;;;;;;3.50;1.20;;;;;;;;;;5057985;28;20032;-75
2023/07/01 04:49:47;;;;;;;1.75;1.27;;;;;;;;;;5056605;28;20032;-74
2023/07/01 04:52:15;;;;;;;2.03;1.50;;;;;;;;;;5039874;28;20074;-75
2023/07/01 04:54:40;;;;;;;1.45;1.35;;;;;;;;;;5074519;28;20099;-75
2023/07/01 04:57:05;;;;;;;1.23;1.10;;;;;;;;;;5056282;28;20093;-75
2023/07/01 04:59:31;;;;;;;2.20;1.30;;;;;;;;;;5056365;28;20111;-75
2023/07/01 05:01:56;;;;;;;2.13;1.20;;;;;;;;;;5055762;28;20128;-75
2023/07/01 05:04:21;;;;;;;1.67;1.50;;;;;;;;;;5056302;28;20067;-74
2023/07/01 05:06:47;;;;;;;2.17;1.40;;;;;;;;;;5055937;28;20053;-75
2023/07/01 05:09:12;;;;;;;3.85;1.30;;;;;;;;;;5074134;28;20032;-75
2023/07/01 05:11:38;;;;;;;1.48;1.33;;;;;;;;;;5056134;28;20044;-75
2023/07/01 05:14:04;;;;;;;1.30;1.15;;;;;;;;;;5074003;28;20028;-76
2023/07/01 05:16:31;;;;;;;1.85;1.30;;;;;;;;;;5074310;28;20028;-75
2023/07/01 05:18:58;;;;;;;1.95;1.15;;;;;;;;;;5056707;28;20025;-75
2023/07/01 05:21:24;;;;;;;3.38;1.30;;;;;;;;;;5055899;28;20029;-76
2023/07/01 05:23:49;;;;;;;2.97;1.10;;;;;;;;;;5073785;28;20024;-76
2023/07/01 05:26:14;;;;;;;1.23;1.05;;;;;;;;;;5073932;28;20035;-76
2023/07/01 05:28:40;;;;;;;3.78;1.23;;;;;;;;;;5039664;28;20036;-76
2023/07/01 05:31:05;;;;;;;1.65;1.10;;;;;;;;;;5039089;28;20035;-75
2023/07/01 05:33:31;;;;;;;2.40;1.60;;;;;;;;;;5055785;28;20052;-75
2023/07/01 05:35:56;;;;;;;2.72;1.30;;;;;;;;;;5073739;28;20029;-75
2023/07/01 05:38:22;;;;;;;1.20;1.10;;;;;;;;;;5073442;28;20024;-75
2023/07/01 05:40:47;;;;;;;7.80;1.60;;;;;;;;;;5055590;28;20024;-76
2023/07/01 05:43:12;;;;;;;1.52;1.27;;;;;;;;;;5022112;28;20029;-76
2023/07/01 05:45:38;;;;;;;1.77;1.33;;;;;;;;;;5055457;28;20043;-75
2023/07/01 05:48:03;;;;;;;2.97;1.20;;;;;;;;;;5055715;28;20036;-75
2023/07/01 05:50:29;;;;;;;1.90;1.20;;;;;;;;;;5039467;28;20024;-76
2023/07/01 05:52:54;;;;;;;2.45;1.20;;;;;;;;;;5055295;28;20088;-75
2023/07/01 05:55:20;;;;;;;1.63;1.33;;;;;;;;;;5055875;28;20505;-75
2023/07/01 05:57:45;;;;;;;1.88;1.23;;;;;;;;;;5055569;28;20124;-74
2023/07/01 06:00:13;;;;;;;2.05;1.25;;;;;;;;;;5056041;28;20033;-75
2023/07/01 06:02:40;;;;;;;6.35;1.40;;;;;;;;;;5056159;28;20045;-75
2023/07/01 06:05:06;;;;;;;2.03;1.30;;;;;;;;;;5058216;28;20029;-76
2023/07/01 06:07:32;;;;;;;11.88;1.58;;;;;;;;;;5074180;28;20624;-76
2023/07/01 06:09:57;;;;;;;4.25;1.45;;;;;;;;;;5055363;28;20148;-75
2023/07/01 06:12:22;;;;;;;5.88;2.03;;;;;;;;;;5038036;28;20109;-75
2023/07/01 06:14:48;;;;;;;2.65;1.35;;;;;;;;;;5039077;28;20111;-76
2023/07/01 06:17:13;;;;;;;3.60;1.70;;;;;;;;;;5073644;28;20029;-76
2023/07/01 06:19:39;;;;;;;2.35;1.23;;;;;;;;;;5038772;28;20029;-75
2023/07/01 06:22:04;;;;;;;3.58;1.42;;;;;;;;;;5055905;28;20566;-75
2023/07/01 06:24:29;;;;;;;3.90;1.60;;;;;;;;;;5059132;28;20036;-75
2023/07/01 06:26:55;;;;;;;4.40;1.40;;;;;;;;;;5074817;28;20038;-75
2023/07/01 06:29:20;;;;;;;3.85;1.40;;;;;;;;;;5085571;28;20025;-75
2023/07/01 06:31:46;;;;;;;1.90;1.70;;;;;;;;;;5073945;28;20418;-75
2023/07/01 06:34:13;;;;;;;2.90;1.30;;;;;;;;;;5055232;28;20185;-75
2023/07/01 06:36:39;;;;;;;1.55;1.20;;;;;;;;;;5039378;28;20140;-75
2023/07/01 06:39:04;;;;;;;5.15;1.40;;;;;;;;;;5038721;28;20483;-75
2023/07/01 06:41:30;;;;;;;3.63;1.27;;;;;;;;;;5055159;28;20060;-75
2023/07/01 06:43:55;;;;;;;2.13;1.20;;;;;;;;;;5072905;28;20082;-75
2023/07/01 06:46:21;;;;;;;2.03;1.38;;;;;;;;;;5072683;28;20059;-75
2023/07/01 06:48:46;;;;;;;5.40;1.10;;;;;;;;;;5073046;28;20024;-74
2023/07/01 06:51:13;;;;;;;2.63;1.10;;;;;;;;;;5072694;28;20028;-75
2023/07/01 06:53:39;;;;;;;1.92;1.35;;;;;;;;;;5054980;28;20048;-75
2023/07/01 06:56:05;;;;;;;1.50;1.10;;;;;;;;;;5055525;28;20056;-74
2023/07/01 06:58:30;;;;;;;1.85;1.00;;;;;;;;;;5037848;28;20086;-75
2023/07/01 07:00:56;;;;;;;1.00;1.00;;;;;;;;;;5054614;28;20032;-74
2023/07/01 07:03:21;;;;;;;1.20;1.10;;;;;;;;;;5072686;28;20032;-75
2023/07/01 07:05:47;;;;;;;3.53;1.50;;;;;;;;;;5038601;28;20384;-74
2023/07/01 07:08:12;;;;;;;1.75;1.30;;;;;;;;;;5026280;28;20057;-75
2023/07/01 07:10:38;;;;;;;1.25;0.93;;;;;;;;;;5052302;28;20025;-75
2023/07/01 07:13:03;;;;;;;1.42;1.00;;;;;;;;;;5018248;28;20033;-75
2023/07/01 07:15:29;;;;;;;1.70;1.02;;;;;;;;;;5018323;28;20028;-76
2023/07/01 07:17:57;;;;;;;1.20;1.10;;;;;;;;;;5034782;28;20029;-75
2023/07/01 07:20:23;;;;;;;1.75;1.08;;;;;;;;;;5035037;28;20037;-76
2023/07/01 07:22:48;;;;;;;1.10;1.00;;;;;;;;;;5052752;28;20118;-76
2023/07/01 07:25:17;;;;;;;1.45;1.10;;;;;;;;;;5037944;28;20115;-76
2023/07/01 07:27:43;;;;;;;1.25;1.13;;;;;;;;;;5021404;28;20029;-76
2023/07/01 07:30:11;;;;;;;2.28;1.15;;;;;;;;;;5038308;28;20033;-75
2023/07/01 07:32:36;;;;;;;4.78;1.08;;;;;;;;;;5037887;28;20108;-74
2023/07/01 07:35:01;;;;;;;1.13;1.02;;;;;;;;;;5021311;28;20056;-75
2023/07/01 07:37:28;;;;;;;3.72;1.20;;;;;;;;;;5055940;28;20075;-75
2023/07/01 07:39:53;;;;;;;1.70;1.10;;;;;;;;;;5021361;28;20025;-75
2023/07/01 07:42:19;;;;;;;2.13;1.20;;;;;;;;;;5038043;28;20036;-76
2023/07/01 07:44:44;;;;;;;4.88;1.45;;;;;;;;;;5038249;28;20025;-76
2023/07/01 07:47:10;;;;;;;5.00;1.45;;;;;;;;;;5038029;28;20452;-76
2023/07/01 07:49:36;;;;;;;5.75;1.65;;;;;;;;;;5038357;28;20059;-76
2023/07/01 07:52:02;;;;;;;3.63;1.27;;;;;;;;;;5021276;28;20083;-76
2023/07/01 07:54:28;;;;;;;5.35;1.83;;;;;;;;;;5021469;28;20025;-75
2023/07/01 07:56:58;;;;;;;1.65;1.20;;;;;;;;;;5037818;28;20036;-75
2023/07/01 07:59:25;;;;;;;2.53;1.63;;;;;;;;;;5038919;28;20021;-76
2023/07/01 08:01:52;;;;;;;5.15;1.40;;;;;;;;;;5038001;28;20498;-76
2023/07/01 08:04:18;;;;;;;2.75;1.40;;;;;;;;;;5020905;28;20041;-75
2023/07/01 08:06:44;;;;;;;1.90;1.27;;;;;;;;;;5055450;28;20052;-75
2023/07/01 08:09:09;;;;;;;1.80;1.10;;;;;;;;;;5056820;28;20147;-76
2023/07/01 08:11:36;;;;;;;3.63;1.27;;;;;;;;;;5059283;28;20031;-77
2023/07/01 08:14:03;;;;;;;9.10;1.95;;;;;;;;;;5058128;28;20029;-77
2023/07/01 08:16:28;;;;;;;2.28;1.40;;;;;;;;;;5057532;28;20036;-78
2023/07/01 08:18:54;;;;;;;8.18;1.42;;;;;;;;;;5057584;28;20090;-78
2023/07/01 08:21:19;;;;;;;4.07;1.40;;;;;;;;;;5056854;28;20134;-76
2023/07/01 08:23:45;;;;;;;2.38;1.25;;;;;;;;;;5040725;28;20038;-74
2023/07/01 08:26:19;;;;;;;8.85;1.60;;;;;;;;;;5040363;28;20471;-75
2023/07/01 08:28:44;;;;;;;3.17;1.80;;;;;;;;;;5074927;28;20502;-75
2023/07/01 08:31:10;;;;;;;11.98;1.55;;;;;;;;;;5057411;28;20028;-75
2023/07/01 08:33:36;;;;;;;2.17;1.38;;;;;;;;;;5023838;28;20024;-75
2023/07/01 08:36:02;;;;;;;5.57;1.38;;;;;;;;;;5057552;28;20394;-76
2023/07/01 08:38:29;;;;;;;1.70;1.30;;;;;;;;;;5057882;28;20029;-75
2023/07/01 08:40:55;;;;;;;2.22;1.20;;;;;;;;;;5075046;28;20039;-75
2023/07/01 08:43:24;;;;;;;4.88;1.30;;;;;;;;;;5039793;28;20395;-75
2023/07/01 08:45:50;;;;;;;2.33;1.40;;;;;;;;;;5057185;28;20016;-75
2023/07/01 08:48:19;;;;;;;8.60;2.33;;;;;;;;;;5056831;28;20043;-75
2023/07/01 08:51:10;;;;;;;7.72;2.67;;;;;;;;;;5039673;28;20034;-75
2023/07/01 08:53:36;;;;;;;10.02;2.55;;;;;;;;;;5056329;28;20102;-76
2023/07/01 08:56:01;;;;;;;10.50;2.85;;;;;;;;;;5056592;28;20028;-76
2023/07/01 08:58:28;;;;;;;4.97;2.20;;;;;;;;;;5056327;28;20032;-76
2023/07/01 09:00:55;;;;;;;7.38;2.35;;;;;;;;;;5056742;28;20135;-76
2023/07/01 09:03:21;;;;;;;7.20;2.15;;;;;;;;;;5056837;28;20609;-77
2023/07/01 09:05:47;;;;;;;3.75;2.20;;;;;;;;;;5074348;28;20060;-76
2023/07/01 09:08:12;;;;;;;5.10;1.90;;;;;;;;;;5056582;28;20056;-76
2023/07/01 09:10:37;;;;;;;4.18;1.88;;;;;;;;;;5073920;28;20016;-76
2023/07/01 09:13:13;;;;;;;4.70;1.92;;;;;;;;;;5056053;28;20090;-76
2023/07/01 09:15:48;;;;;;;4.50;1.52;;;;;;;;;;5056572;28;20048;-76
2023/07/01 09:18:30;;;;;;;3.35;1.80;;;;;;;;;;5039702;28;20064;-77
2023/07/01 09:20:57;;;;;;;3.30;1.60;;;;;;;;;;5056774;28;20026;-76
2023/07/01 09:23:26;;;;;;;4.03;1.38;;;;;;;;;;5056133;28;20020;-77
2023/07/01 09:25:52;;;;;;;4.18;1.40;;;;;;;;;;5055658;28;20029;-78
2023/07/01 09:28:30;;;;;;;2.38;1.50;;;;;;;;;;5056057;28;20120;-78
2023/07/01 09:30:59;;;;;;;3.22;1.52;;;;;;;;;;5055844;28;20046;-78
2023/07/01 09:33:25;;;;;;;1.55;1.13;;;;;;;;;;5056111;28;20017;-78
2023/07/01 09:35:57;;;;;;;2.33;1.20;;;;;;;;;;5059654;28;20047;-77
2023/07/01 09:38:23;;;;;;;2.92;1.20;;;;;;;;;;5056571;28;20028;-77
2023/07/01 09:40:49;;;;;;;4.22;1.27;;;;;;;;;;5039047;28;20124;-77
2023/07/01 09:43:15;;;;;;;2.10;1.33;;;;;;;;;;5073677;28;20436;-77
2023/07/01 09:45:52;;;;;;;3.30;1.20;;;;;;;;;;5055635;28;20032;-77
2023/07/01 09:48:18;;;;;;;1.45;1.20;;;;;;;;;;5055266;28;20029;-77
2023/07/01 09:50:44;;;;;;;1.48;0.95;;;;;;;;;;5057581;28;20077;-77
2023/07/01 09:53:24;;;;;;;1.02;0.90;;;;;;;;;;5040841;28;20119;-78
2023/07/01 09:55:50;;;;;;;1.73;0.82;;;;;;;;;;5040782;28;20123;-77
2023/07/01 09:58:15;;;;;;;1.40;1.15;;;;;;;;;;5057570;28;20040;-77
2023/07/01 10:00:42;;;;;;;1.10;1.00;;;;;;;;;;5059697;28;20102;-77
2023/07/01 10:03:07;;;;;;;1.05;1.00;;;;;;;;;;5059061;28;20047;-77
2023/07/01 10:05:36;;;;;;;0.93;0.90;;;;;;;;;;5057494;28;20028;-76
2023/07/01 10:08:02;;;;;;;0.73;0.73;;;;;;;;;;5073987;28;20063;-76
2023/07/01 10:10:28;;;;;;;0.80;0.80;;;;;;;;;;5056539;28;20028;-76
2023/07/01 10:12:54;;;;;;;0.73;0.73;;;;;;;;;;5039252;28;20115;-76
2023/07/01 10:15:30;;;;;;;0.90;0.90;;;;;;;;;;5022696;28;20550;-78
2023/07/01 10:17:55;;;;;;;1.55;1.00;;;;;;;;;;5040375;28;20467;-77
2023/07/01 10:20:28;;;;;;;1.42;0.90;;;;;;;;;;5074179;28;20081;-77
2023/07/01 10:22:57;;;;;;;0.77;0.77;;;;;;;;;;5056746;28;20039;-76
2023/07/01 10:25:36;;;;;;;0.85;0.85;;;;;;;;;;5039391;28;20031;-75
2023/07/01 10:28:09;;;;;;;0.93;0.75;;;;;;;;;;5055926;28;20556;-76
2023/07/01 10:30:44;;;;;;;0.93;0.93;;;;;;;;;;5039647;28;20029;-77
2023/07/01 10:33:32;;;;;;;1.00;1.00;;;;;;;;;;5056100;28;20487;-75
2023/07/01 10:36:05;;;;;;;1.00;1.00;;;;;;;;;;5056399;28;20577;-75
2023/07/01 10:38:31;;;;;;;2.67;0.90;;;;;;;;;;5073677;28;20031;-75
2023/07/01 10:40:57;;;;;;;1.20;1.10;;;;;;;;;;5055485;28;20029;-74
2023/07/01 10:43:36;;;;;;;0.90;0.90;;;;;;;;;;5073751;28;20032;-76
2023/07/01 10:46:20;;;;;;;1.67;0.90;;;;;;;;;;5073099;28;20025;-75
2023/07/01 10:49:05;;;;;;;2.38;0.98;;;;;;;;;;5055536;28;20035;-76
2023/07/01 10:51:32;;;;;;;1.75;1.40;;;;;;;;;;5073386;28;20023;-76
2023/07/01 10:54:07;;;;;;;2.20;0.90;;;;;;;;;;5055719;28;20466;-75
2023/07/01 10:56:39;;;;;;;1.55;0.90;;;;;;;;;;5055970;28;20078;-76
2023/07/01 10:59:30;;;;;;;0.93;0.88;;;;;;;;;;5058063;28;20450;-76
2023/07/01 11:01:57;;;;;;;0.90;0.80;;;;;;;;;;5060357;28;20491;-75
2023/07/01 11:04:54;;;;;;;2.70;0.88;;;;;;;;;;5044089;28;20030;-76
2023/07/01 11:07:27;;;;;;;0.88;0.77;;;;;;;;;;5077020;28;20072;-76
2023/07/01 11:09:56;;;;;;;5.93;1.17;;;;;;;;;;5042886;28;20020;-76
2023/07/01 11:12:27;;;;;;;1.08;0.90;;;;;;;;;;5060136;28;20016;-75
2023/07/01 11:14:54;;;;;;;3.95;0.85;;;;;;;;;;5078482;28;20038;-76
2023/07/01 11:17:21;;;;;;;1.60;1.08;;;;;;;;;;5026258;28;20040;-76
2023/07/01 11:19:53;;;;;;;1.45;1.02;;;;;;;;;;5060007;28;20020;-76
2023/07/01 11:22:19;;;;;;;0.95;0.82;;;;;;;;;;5059012;28;20115;-76
2023/07/01 11:24:44;;;;;;;1.33;0.80;;;;;;;;;;5025752;28;20551;-76
2023/07/01 11:27:11;;;;;;;1.67;1.05;;;;;;;;;;5076941;28;20070;-76
2023/07/01 11:29:37;;;;;;;1.05;0.80;;;;;;;;;;5025724;28;20063;-77
2023/07/01 11:32:04;;;;;;;0.98;0.80;;;;;;;;;;5059057;28;20033;-77
2023/07/01 11:34:30;;;;;;;2.47;1.15;;;;;;;;;;5058476;28;20043;-76
2023/07/01 11:36:57;;;;;;;2.03;1.10;;;;;;;;;;5058573;28;20028;-76
2023/07/01 11:39:23;;;;;;;3.10;1.10;;;;;;;;;;5041764;28;20032;-76
2023/07/01 11:41:53;;;;;;;1.25;0.98;;;;;;;;;;5058054;28;20032;-76
2023/07/01 11:44:26;;;;;;;1.52;1.00;;;;;;;;;;5042241;28;20429;-76
2023/07/01 11:46:52;;;;;;;3.10;1.00;;;;;;;;;;5076393;28;20052;-77
2023/07/01 11:49:21;;;;;;;2.20;1.20;;;;;;;;;;5041492;28;20462;-76
2023/07/01 11:52:06;;;;;;;1.48;1.10;;;;;;;;;;5076074;28;20052;-76
2023/07/01 11:54:47;;;;;;;1.30;1.20;;;;;;;;;;5058179;28;20115;-77
2023/07/01 11:57:15;;;;;;;0.98;0.98;;;;;;;;;;5041247;28;20028;-76
2023/07/01 12:00:03;;;;;;;1.08;1.08;;;;;;;;;;5058199;28;20016;-76
2023/07/01 12:02:33;;;;;;;2.95;1.20;;;;;;;;;;5058382;28;20028;-76
2023/07/01 12:04:58;;;;;;;3.72;1.20;;;;;;;;;;5058224;28;20043;-76
2023/07/01 12:07:24;;;;;;;2.75;1.08;;;;;;;;;;5052769;28;20127;-77
2023/07/01 12:09:50;;;;;;;5.05;1.30;;;;;;;;;;5020398;28;20476;-77
2023/07/01 12:12:31;;;;;;;1.30;1.10;;;;;;;;;;5055642;28;20017;-75
2023/07/01 12:15:04;;;;;;;1.45;1.15;;;;;;;;;;5037541;28;20036;-76
2023/07/01 12:17:30;;;;;;;1.60;1.13;;;;;;;;;;5020803;28;20037;-76
2023/07/01 12:19:58;;;;;;;4.85;1.17;;;;;;;;;;5021048;28;20029;-77
2023/07/01 12:22:24;;;;;;;2.35;1.10;;;;;;;;;;5037672;28;20032;-76
2023/07/01 12:24:57;;;;;;;1.25;1.10;;;;;;;;;;5021952;28;20033;-76
2023/07/01 12:27:23;;;;;;;4.43;1.10;;;;;;;;;;5020897;28;20025;-76
2023/07/01 12:29:48;;;;;;;2.13;1.10;;;;;;;;;;5055456;28;20408;-76
2023/07/01 12:32:14;;;;;;;1.80;1.30;;;;;;;;;;5038336;28;20468;-76
2023/07/01 12:34:39;;;;;;;3.72;1.30;;;;;;;;;;5020652;28;20123;-76
2023/07/01 12:37:06;;;;;;;5.40;1.45;;;;;;;;;;5055443;28;20033;-76
2023/07/01 12:39:32;;;;;;;1.95;1.00;;;;;;;;;;5037313;28;20025;-76
2023/07/01 12:41:58;;;;;;;2.08;1.10;;;;;;;;;;5055442;28;20036;-76
2023/07/01 12:44:24;;;;;;;3.45;1.20;;;;;;;;;;5037609;28;20029;-76
2023/07/01 12:46:49;;;;;;;2.97;1.60;;;;;;;;;;5020463;28;20136;-76
2023/07/01 12:49:14;;;;;;;3.20;1.10;;;;;;;;;;5021036;28;20037;-76
2023/07/01 12:51:44;;;;;;;1.20;1.10;;;;;;;;;;5037215;28;20472;-76
2023/07/01 12:54:10;;;;;;;2.40;1.50;;;;;;;;;;5054684;28;20028;-76
2023/07/01 12:56:36;;;;;;;5.63;1.33;;;;;;;;;;5054933;28;20490;-76
2023/07/01 12:59:01;;;;;;;8.32;1.38;;;;;;;;;;5036863;28;20032;-75
2023/07/01 13:01:27;;;;;;;3.10;1.30;;;;;;;;;;5020156;28;20127;-76
2023/07/01 13:03:52;;;;;;;1.70;1.15;;;;;;;;;;5037078;28;20103;-76
2023/07/01 13:06:18;;;;;;;1.30;1.17;;;;;;;;;;5054713;28;20468;-76
2023/07/01 13:08:43;;;;;;;1.75;1.23;;;;;;;;;;5070036;28;20466;-76
2023/07/01 13:11:08;;;;;;;4.30;1.23;;;;;;;;;;5074441;28;20024;-76
2023/07/01 13:13:35;;;;;;;1.63;1.08;;;;;;;;;;5056406;28;20029;-76
2023/07/01 13:16:00;;;;;;;1.88;1.40;;;;;;;;;;5039700;28;20124;-75
2023/07/01 13:18:26;;;;;;;3.72;1.42;;;;;;;;;;5074715;28;20056;-76
2023/07/01 13:20:52;;;;;;;1.77;1.30;;;;;;;;;;5055908;28;20028;-76
2023/07/01 13:23:17;;;;;;;3.67;1.60;;;;;;;;;;5039572;28;20078;-76
2023/07/01 13:25:43;;;;;;;4.80;1.60;;;;;;;;;;5056477;28;20036;-76
2023/07/01 13:28:08;;;;;;;5.10;1.40;;;;;;;;;;5073981;28;20028;-76
2023/07/01 13:30:42;;;;;;;4.85;1.33;;;;;;;;;;5039367;28;20036;-77
2023/07/01 13:33:08;;;;;;;1.95;1.40;;;;;;;;;;5073955;28;20383;-77
2023/07/01 13:35:34;;;;;;;1.42;1.23;;;;;;;;;;5056065;28;20025;-77
2023/07/01 13:38:07;;;;;;;2.13;1.40;;;;;;;;;;5073973;28;20032;-77
2023/07/01 13:40:39;;;;;;;2.42;1.38;;;;;;;;;;5074383;28;20426;-77
2023/07/01 13:43:06;;;;;;;3.10;1.50;;;;;;;;;;5056280;28;20032;-77
2023/07/01 13:45:32;;;;;;;2.38;1.20;;;;;;;;;;5039409;28;20028;-77
2023/07/01 13:47:57;;;;;;;1.77;1.20;;;;;;;;;;5056169;28;20062;-77
2023/07/01 13:50:24;;;;;;;4.20;1.30;;;;;;;;;;5039882;28;20134;-77
2023/07/01 13:52:53;;;;;;;1.40;1.02;;;;;;;;;;5039145;28;20085;-76
2023/07/01 13:55:20;;;;;;;1.48;1.10;;;;;;;;;;5055513;28;20475;-76
2023/07/01 13:57:48;;;;;;;1.52;1.00;;;;;;;;;;5073514;28;20029;-77
2023/07/01 14:00:41;;;;;;;2.20;1.27;;;;;;;;;;5039064;28;20111;-76
2023/07/01 14:03:13;;;;;;;1.75;1.20;;;;;;;;;;5073786;28;20037;-77
2023/07/01 14:05:40;;;;;;;3.15;1.13;;;;;;;;;;5055584;28;20028;-76
2023/07/01 14:08:07;;;;;;;1.45;1.15;;;;;;;;;;5045136;28;20052;-76
2023/07/01 14:10:35;;;;;;;1.25;1.10;;;;;;;;;;5035624;28;20377;-76
2023/07/01 14:13:03;;;;;;;1.10;1.00;;;;;;;;;;5036312;28;20025;-77
2023/07/01 14:15:38;;;;;;;2.83;1.20;;;;;;;;;;5019335;28;20128;-78
2023/07/01 14:18:09;;;;;;;0.90;0.90;;;;;;;;;;5053534;28;20040;-76
2023/07/01 14:20:34;;;;;;;1.25;0.93;;;;;;;;;;5035845;28;20035;-77
2023/07/01 14:23:00;;;;;;;1.05;0.90;;;;;;;;;;5019452;28;20029;-77
2023/07/01 14:25:37;;;;;;;1.90;0.98;;;;;;;;;;5035913;28;20039;-77
2023/07/01 14:28:09;;;;;;;0.82;0.82;;;;;;;;;;5053243;28;20025;-77
2023/07/01 14:31:08;;;;;;;1.25;0.85;;;;;;;;;;5035873;28;20053;-77
2023/07/01 14:33:35;;;;;;;2.70;0.98;;;;;;;;;;5030261;28;20085;-76
2023/07/01 14:36:11;;;;;;;1.60;1.00;;;;;;;;;;5040067;28;20017;-77
2023/07/01 14:38:42;;;;;;;1.05;0.95;;;;;;;;;;5041136;28;20472;-77
2023/07/01 14:41:18;;;;;;;1.20;1.00;;;;;;;;;;5039497;28;20029;-77
2023/07/01 14:43:43;;;;;;;1.10;1.00;;;;;;;;;;5040321;28;20144;-76
2023/07/01 14:46:08;;;;;;;1.63;1.10;;;;;;;;;;5022928;28;20522;-76